sensor_id;sensor_type;location;lat;lon;timestamp;P1;durP1;ratioP1;P2;durP2;ratioP2
21266;SDS011;10791;53.108;18.326;2023-08-31T00:03:27;3.03;;;1.83;;
21266;SDS011;10791;53.108;18.326;2023-08-31T00:08:31;4.60;;;1.50;;
21266;SDS011;10791;53.108;18.326;2023-08-31T00:13:35;3.80;;;1.47;;
21266;SDS011;10791;53.108;18.326;2023-08-31T00:18:38;3.20;;;1.60;;
21266;SDS011;10791;53.108;18.326;2023-08-31T00:23:41;3.07;;;1.77;;
21266;SDS011;10791;53.108;18.326;2023-08-31T00:28:44;3.13;;;1.87;;
21266;SDS011;10791;53.108;18.326;2023-08-31T00:33:47;4.00;;;1.80;;
21266;SDS011;10791;53.108;18.326;2023-08-31T00:38:50;5.73;;;1.80;;
21266;SDS011;10791;53.108;18.326;2023-08-31T00:43:53;3.23;;;1.77;;
21266;SDS011;10791;53.108;18.326;2023-08-31T00:48:57;3.00;;;1.77;;
21266;SDS011;10791;53.108;18.326;2023-08-31T00:54:00;3.30;;;1.97;;
21266;SDS011;10791;53.108;18.326;2023-08-31T00:59:03;3.33;;;2.00;;
21266;SDS011;10791;53.108;18.326;2023-08-31T01:04:14;4.73;;;2.20;;
21266;SDS011;10791;53.108;18.326;2023-08-31T01:10:02;4.07;;;2.50;;
21266;SDS011;10791;53.108;18.326;2023-08-31T01:15:12;3.10;;;1.77;;
21266;SDS011;10791;53.108;18.326;2023-08-31T01:20:31;6.93;;;2.77;;
21266;SDS011;10791;53.108;18.326;2023-08-31T01:25:45;7.27;;;2.30;;
21266;SDS011;10791;53.108;18.326;2023-08-31T01:30:50;6.03;;;2.90;;
21266;SDS011;10791;53.108;18.326;2023-08-31T01:35:53;4.83;;;3.23;;
21266;SDS011;10791;53.108;18.326;2023-08-31T01:41:00;3.97;;;2.30;;
21266;SDS011;10791;53.108;18.326;2023-08-31T01:46:13;4.43;;;2.83;;
21266;SDS011;10791;53.108;18.326;2023-08-31T01:51:17;3.77;;;2.50;;
21266;SDS011;10791;53.108;18.326;2023-08-31T01:56:20;5.57;;;2.97;;
21266;SDS011;10791;53.108;18.326;2023-08-31T02:01:24;6.53;;;2.90;;
21266;SDS011;10791;53.108;18.326;2023-08-31T02:06:27;5.40;;;2.60;;
21266;SDS011;10791;53.108;18.326;2023-08-31T02:11:30;5.13;;;3.03;;
21266;SDS011;10791;53.108;18.326;2023-08-31T02:16:34;4.37;;;2.60;;
21266;SDS011;10791;53.108;18.326;2023-08-31T02:21:37;5.23;;;3.20;;
21266;SDS011;10791;53.108;18.326;2023-08-31T02:26:40;6.47;;;3.50;;
21266;SDS011;10791;53.108;18.326;2023-08-31T02:31:43;6.73;;;3.50;;
21266;SDS011;10791;53.108;18.326;2023-08-31T02:36:47;7.17;;;3.40;;
21266;SDS011;10791;53.108;18.326;2023-08-31T02:41:50;7.83;;;4.10;;
21266;SDS011;10791;53.108;18.326;2023-08-31T02:46:54;5.73;;;3.50;;
21266;SDS011;10791;53.108;18.326;2023-08-31T02:51:57;8.13;;;3.43;;
21266;SDS011;10791;53.108;18.326;2023-08-31T02:57:00;5.23;;;2.63;;
21266;SDS011;10791;53.108;18.326;2023-08-31T03:02:04;5.27;;;3.23;;
21266;SDS011;10791;53.108;18.326;2023-08-31T03:07:08;5.83;;;3.20;;
21266;SDS011;10791;53.108;18.326;2023-08-31T03:12:11;6.00;;;3.23;;
21266;SDS011;10791;53.108;18.326;2023-08-31T03:17:14;8.30;;;4.20;;
21266;SDS011;10791;53.108;18.326;2023-08-31T03:22:16;6.30;;;3.57;;
21266;SDS011;10791;53.108;18.326;2023-08-31T03:27:19;6.60;;;3.03;;
21266;SDS011;10791;53.108;18.326;2023-08-31T03:32:23;6.20;;;3.23;;
21266;SDS011;10791;53.108;18.326;2023-08-31T03:37:26;7.87;;;3.70;;
21266;SDS011;10791;53.108;18.326;2023-08-31T03:42:29;5.47;;;3.23;;
21266;SDS011;10791;53.108;18.326;2023-08-31T03:47:32;4.47;;;2.60;;
21266;SDS011;10791;53.108;18.326;2023-08-31T03:52:35;6.70;;;3.17;;
21266;SDS011;10791;53.108;18.326;2023-08-31T03:57:38;4.63;;;3.03;;
21266;SDS011;10791;53.108;18.326;2023-08-31T04:02:42;7.53;;;3.73;;
21266;SDS011;10791;53.108;18.326;2023-08-31T04:07:47;6.30;;;3.90;;
21266;SDS011;10791;53.108;18.326;2023-08-31T04:12:50;5.47;;;3.43;;
21266;SDS011;10791;53.108;18.326;2023-08-31T04:17:53;5.00;;;2.60;;
21266;SDS011;10791;53.108;18.326;2023-08-31T04:22:56;5.33;;;3.37;;
21266;SDS011;10791;53.108;18.326;2023-08-31T04:27:59;6.47;;;2.67;;
21266;SDS011;10791;53.108;18.326;2023-08-31T04:33:02;8.60;;;3.77;;
21266;SDS011;10791;53.108;18.326;2023-08-31T04:38:07;5.03;;;2.93;;
21266;SDS011;10791;53.108;18.326;2023-08-31T04:43:10;9.20;;;2.70;;
21266;SDS011;10791;53.108;18.326;2023-08-31T04:48:14;5.40;;;2.73;;
21266;SDS011;10791;53.108;18.326;2023-08-31T04:53:18;6.93;;;3.23;;
21266;SDS011;10791;53.108;18.326;2023-08-31T04:58:21;9.17;;;2.63;;
21266;SDS011;10791;53.108;18.326;2023-08-31T05:03:24;3.93;;;2.87;;
21266;SDS011;10791;53.108;18.326;2023-08-31T05:08:27;4.77;;;2.93;;
21266;SDS011;10791;53.108;18.326;2023-08-31T05:13:30;4.88;;;3.33;;
21266;SDS011;10791;53.108;18.326;2023-08-31T05:18:33;7.50;;;3.23;;
21266;SDS011;10791;53.108;18.326;2023-08-31T05:23:37;5.87;;;4.03;;
21266;SDS011;10791;53.108;18.326;2023-08-31T05:28:40;4.37;;;3.13;;
21266;SDS011;10791;53.108;18.326;2023-08-31T05:33:43;4.57;;;3.03;;
21266;SDS011;10791;53.108;18.326;2023-08-31T05:38:46;5.80;;;3.83;;
21266;SDS011;10791;53.108;18.326;2023-08-31T05:43:49;6.00;;;3.87;;
21266;SDS011;10791;53.108;18.326;2023-08-31T05:48:52;6.00;;;3.97;;
21266;SDS011;10791;53.108;18.326;2023-08-31T05:53:55;5.97;;;3.37;;
21266;SDS011;10791;53.108;18.326;2023-08-31T05:58:58;5.90;;;4.20;;
21266;SDS011;10791;53.108;18.326;2023-08-31T06:04:02;5.77;;;3.67;;
21266;SDS011;10791;53.108;18.326;2023-08-31T06:09:05;6.50;;;4.13;;
21266;SDS011;10791;53.108;18.326;2023-08-31T06:14:09;7.00;;;4.50;;
21266;SDS011;10791;53.108;18.326;2023-08-31T06:19:12;6.15;;;3.60;;
21266;SDS011;10791;53.108;18.326;2023-08-31T06:24:19;6.47;;;4.47;;
21266;SDS011;10791;53.108;18.326;2023-08-31T06:29:26;9.13;;;4.17;;
21266;SDS011;10791;53.108;18.326;2023-08-31T06:34:29;6.88;;;4.25;;
21266;SDS011;10791;53.108;18.326;2023-08-31T06:39:33;6.15;;;4.35;;
21266;SDS011;10791;53.108;18.326;2023-08-31T06:44:37;10.85;;;4.18;;
21266;SDS011;10791;53.108;18.326;2023-08-31T06:49:46;6.80;;;3.47;;
21266;SDS011;10791;53.108;18.326;2023-08-31T06:54:50;8.75;;;4.80;;
21266;SDS011;10791;53.108;18.326;2023-08-31T06:59:57;9.25;;;4.38;;
21266;SDS011;10791;53.108;18.326;2023-08-31T07:05:06;6.57;;;4.07;;
21266;SDS011;10791;53.108;18.326;2023-08-31T07:10:10;5.65;;;3.72;;
21266;SDS011;10791;53.108;18.326;2023-08-31T07:15:17;8.90;;;4.55;;
21266;SDS011;10791;53.108;18.326;2023-08-31T07:20:25;7.47;;;3.70;;
21266;SDS011;10791;53.108;18.326;2023-08-31T07:25:28;5.13;;;3.55;;
21266;SDS011;10791;53.108;18.326;2023-08-31T07:30:31;5.45;;;3.58;;
21266;SDS011;10791;53.108;18.326;2023-08-31T07:35:35;4.93;;;3.33;;
21266;SDS011;10791;53.108;18.326;2023-08-31T07:40:42;4.60;;;3.50;;
21266;SDS011;10791;53.108;18.326;2023-08-31T07:45:45;7.38;;;5.07;;
21266;SDS011;10791;53.108;18.326;2023-08-31T07:50:49;7.70;;;4.18;;
21266;SDS011;10791;53.108;18.326;2023-08-31T07:55:55;6.15;;;3.40;;
21266;SDS011;10791;53.108;18.326;2023-08-31T08:01:01;7.60;;;3.65;;
21266;SDS011;10791;53.108;18.326;2023-08-31T08:06:04;6.55;;;4.22;;
21266;SDS011;10791;53.108;18.326;2023-08-31T08:11:07;4.32;;;2.90;;
21266;SDS011;10791;53.108;18.326;2023-08-31T08:16:11;4.60;;;3.50;;
21266;SDS011;10791;53.108;18.326;2023-08-31T08:21:14;4.55;;;2.50;;
21266;SDS011;10791;53.108;18.326;2023-08-31T08:26:17;6.43;;;2.75;;
21266;SDS011;10791;53.108;18.326;2023-08-31T08:31:20;4.75;;;3.33;;
21266;SDS011;10791;53.108;18.326;2023-08-31T08:36:26;6.20;;;2.95;;
21266;SDS011;10791;53.108;18.326;2023-08-31T08:41:29;4.15;;;3.03;;
21266;SDS011;10791;53.108;18.326;2023-08-31T08:46:35;3.97;;;3.20;;
21266;SDS011;10791;53.108;18.326;2023-08-31T08:51:39;4.65;;;2.95;;
21266;SDS011;10791;53.108;18.326;2023-08-31T08:56:43;5.45;;;3.60;;
21266;SDS011;10791;53.108;18.326;2023-08-31T09:01:46;5.38;;;3.35;;
21266;SDS011;10791;53.108;18.326;2023-08-31T09:06:50;6.93;;;4.57;;
21266;SDS011;10791;53.108;18.326;2023-08-31T09:12:06;5.50;;;3.25;;
21266;SDS011;10791;53.108;18.326;2023-08-31T09:17:10;7.07;;;3.42;;
21266;SDS011;10791;53.108;18.326;2023-08-31T09:22:17;3.95;;;3.33;;
21266;SDS011;10791;53.108;18.326;2023-08-31T09:27:25;5.85;;;3.00;;
21266;SDS011;10791;53.108;18.326;2023-08-31T09:32:28;6.80;;;4.25;;
21266;SDS011;10791;53.108;18.326;2023-08-31T09:37:36;4.32;;;3.90;;
21266;SDS011;10791;53.108;18.326;2023-08-31T09:42:40;4.97;;;4.47;;
21266;SDS011;10791;53.108;18.326;2023-08-31T09:47:43;5.35;;;4.40;;
21266;SDS011;10791;53.108;18.326;2023-08-31T09:52:46;7.45;;;5.00;;
21266;SDS011;10791;53.108;18.326;2023-08-31T09:57:52;6.50;;;5.85;;
21266;SDS011;10791;53.108;18.326;2023-08-31T10:03:16;9.75;;;7.57;;
21266;SDS011;10791;53.108;18.326;2023-08-31T10:08:21;9.38;;;7.82;;
21266;SDS011;10791;53.108;18.326;2023-08-31T10:13:26;10.13;;;7.15;;
21266;SDS011;10791;53.108;18.326;2023-08-31T10:18:34;10.35;;;7.32;;
21266;SDS011;10791;53.108;18.326;2023-08-31T10:23:45;15.70;;;7.53;;
21266;SDS011;10791;53.108;18.326;2023-08-31T10:28:51;7.80;;;6.78;;
21266;SDS011;10791;53.108;18.326;2023-08-31T10:33:59;10.38;;;6.60;;
21266;SDS011;10791;53.108;18.326;2023-08-31T10:44:18;10.77;;;7.43;;
21266;SDS011;10791;53.108;18.326;2023-08-31T10:49:25;9.35;;;7.72;;
21266;SDS011;10791;53.108;18.326;2023-08-31T10:54:31;9.80;;;8.13;;
21266;SDS011;10791;53.108;18.326;2023-08-31T11:05:13;10.13;;;8.27;;
21266;SDS011;10791;53.108;18.326;2023-08-31T11:10:18;10.10;;;7.03;;
21266;SDS011;10791;53.108;18.326;2023-08-31T11:15:29;13.90;;;8.07;;
21266;SDS011;10791;53.108;18.326;2023-08-31T11:20:42;7.70;;;6.45;;
21266;SDS011;10791;53.108;18.326;2023-08-31T11:25:49;5.53;;;4.57;;
21266;SDS011;10791;53.108;18.326;2023-08-31T11:30:53;10.45;;;4.22;;
21266;SDS011;10791;53.108;18.326;2023-08-31T11:35:56;7.95;;;4.10;;
21266;SDS011;10791;53.108;18.326;2023-08-31T11:41:00;6.10;;;4.47;;
21266;SDS011;10791;53.108;18.326;2023-08-31T11:46:04;4.95;;;4.40;;
21266;SDS011;10791;53.108;18.326;2023-08-31T11:51:11;7.10;;;4.78;;
21266;SDS011;10791;53.108;18.326;2023-08-31T11:56:16;6.30;;;4.32;;
21266;SDS011;10791;53.108;18.326;2023-08-31T12:01:21;5.47;;;4.20;;
21266;SDS011;10791;53.108;18.326;2023-08-31T12:06:26;6.72;;;4.20;;
21266;SDS011;10791;53.108;18.326;2023-08-31T12:11:29;5.43;;;3.97;;
21266;SDS011;10791;53.108;18.326;2023-08-31T12:16:33;5.40;;;4.10;;
21266;SDS011;10791;53.108;18.326;2023-08-31T12:21:42;5.80;;;4.70;;
21266;SDS011;10791;53.108;18.326;2023-08-31T12:26:47;7.43;;;5.25;;
21266;SDS011;10791;53.108;18.326;2023-08-31T12:31:55;6.45;;;4.22;;
21266;SDS011;10791;53.108;18.326;2023-08-31T12:37:04;6.68;;;4.18;;
21266;SDS011;10791;53.108;18.326;2023-08-31T12:42:07;8.10;;;4.97;;
21266;SDS011;10791;53.108;18.326;2023-08-31T12:47:24;5.30;;;4.15;;
21266;SDS011;10791;53.108;18.326;2023-08-31T12:52:32;4.78;;;3.85;;
21266;SDS011;10791;53.108;18.326;2023-08-31T12:57:35;4.32;;;3.80;;
21266;SDS011;10791;53.108;18.326;2023-08-31T13:02:38;5.85;;;4.05;;
21266;SDS011;10791;53.108;18.326;2023-08-31T13:07:46;4.40;;;3.22;;
21266;SDS011;10791;53.108;18.326;2023-08-31T13:12:49;3.42;;;2.25;;
21266;SDS011;10791;53.108;18.326;2023-08-31T13:17:57;6.65;;;3.05;;
21266;SDS011;10791;53.108;18.326;2023-08-31T13:23:00;3.72;;;2.72;;
21266;SDS011;10791;53.108;18.326;2023-08-31T13:28:03;4.30;;;2.30;;
21266;SDS011;10791;53.108;18.326;2023-08-31T13:33:06;3.30;;;2.33;;
21266;SDS011;10791;53.108;18.326;2023-08-31T13:38:09;4.45;;;2.88;;
21266;SDS011;10791;53.108;18.326;2023-08-31T13:43:18;3.45;;;2.55;;
21266;SDS011;10791;53.108;18.326;2023-08-31T13:48:21;3.47;;;2.40;;
21266;SDS011;10791;53.108;18.326;2023-08-31T13:53:33;4.78;;;3.10;;
21266;SDS011;10791;53.108;18.326;2023-08-31T13:58:41;3.33;;;2.40;;
21266;SDS011;10791;53.108;18.326;2023-08-31T14:03:49;2.95;;;2.40;;
21266;SDS011;10791;53.108;18.326;2023-08-31T14:08:58;3.47;;;2.60;;
21266;SDS011;10791;53.108;18.326;2023-08-31T14:14:02;4.65;;;2.95;;
21266;SDS011;10791;53.108;18.326;2023-08-31T14:19:16;4.50;;;2.67;;
21266;SDS011;10791;53.108;18.326;2023-08-31T14:24:23;3.78;;;2.65;;
21266;SDS011;10791;53.108;18.326;2023-08-31T14:29:31;4.50;;;2.85;;
21266;SDS011;10791;53.108;18.326;2023-08-31T14:34:39;4.95;;;2.83;;
21266;SDS011;10791;53.108;18.326;2023-08-31T14:39:43;4.78;;;2.80;;
21266;SDS011;10791;53.108;18.326;2023-08-31T14:44:50;2.55;;;1.52;;
21266;SDS011;10791;53.108;18.326;2023-08-31T14:49:58;4.00;;;1.63;;
21266;SDS011;10791;53.108;18.326;2023-08-31T14:55:02;4.45;;;2.00;;
21266;SDS011;10791;53.108;18.326;2023-08-31T15:00:06;3.60;;;1.90;;
21266;SDS011;10791;53.108;18.326;2023-08-31T15:05:11;2.42;;;1.42;;
21266;SDS011;10791;53.108;18.326;2023-08-31T15:10:17;2.53;;;2.00;;
21266;SDS011;10791;53.108;18.326;2023-08-31T15:15:26;3.50;;;1.98;;
21266;SDS011;10791;53.108;18.326;2023-08-31T15:20:33;3.00;;;1.52;;
21266;SDS011;10791;53.108;18.326;2023-08-31T15:25:46;1.98;;;1.10;;
21266;SDS011;10791;53.108;18.326;2023-08-31T15:30:57;1.55;;;0.85;;
21266;SDS011;10791;53.108;18.326;2023-08-31T15:36:06;2.47;;;1.05;;
21266;SDS011;10791;53.108;18.326;2023-08-31T15:41:12;1.75;;;0.75;;
21266;SDS011;10791;53.108;18.326;2023-08-31T15:46:17;1.52;;;0.70;;
21266;SDS011;10791;53.108;18.326;2023-08-31T15:51:22;3.00;;;1.00;;
21266;SDS011;10791;53.108;18.326;2023-08-31T15:56:25;1.35;;;0.75;;
21266;SDS011;10791;53.108;18.326;2023-08-31T16:01:29;1.73;;;0.82;;
21266;SDS011;10791;53.108;18.326;2023-08-31T16:06:34;2.10;;;0.95;;
21266;SDS011;10791;53.108;18.326;2023-08-31T16:11:40;1.23;;;0.65;;
21266;SDS011;10791;53.108;18.326;2023-08-31T16:16:44;2.17;;;0.80;;
21266;SDS011;10791;53.108;18.326;2023-08-31T16:21:48;1.52;;;0.80;;
21266;SDS011;10791;53.108;18.326;2023-08-31T16:26:52;1.38;;;0.82;;
21266;SDS011;10791;53.108;18.326;2023-08-31T16:31:56;2.10;;;0.80;;
21266;SDS011;10791;53.108;18.326;2023-08-31T16:37:01;1.80;;;0.80;;
21266;SDS011;10791;53.108;18.326;2023-08-31T16:42:07;1.10;;;0.82;;
21266;SDS011;10791;53.108;18.326;2023-08-31T16:47:10;1.92;;;1.15;;
21266;SDS011;10791;53.108;18.326;2023-08-31T16:52:14;3.58;;;0.93;;
21266;SDS011;10791;53.108;18.326;2023-08-31T16:57:18;3.97;;;1.05;;
21266;SDS011;10791;53.108;18.326;2023-08-31T17:02:23;1.70;;;0.95;;
21266;SDS011;10791;53.108;18.326;2023-08-31T17:07:27;2.53;;;0.98;;
21266;SDS011;10791;53.108;18.326;2023-08-31T17:12:30;4.38;;;1.30;;
21266;SDS011;10791;53.108;18.326;2023-08-31T17:17:37;1.80;;;1.10;;
21266;SDS011;10791;53.108;18.326;2023-08-31T17:22:49;1.90;;;1.15;;
21266;SDS011;10791;53.108;18.326;2023-08-31T17:27:53;1.42;;;0.98;;
21266;SDS011;10791;53.108;18.326;2023-08-31T17:32:57;3.25;;;1.40;;
21266;SDS011;10791;53.108;18.326;2023-08-31T17:38:01;3.28;;;1.60;;
21266;SDS011;10791;53.108;18.326;2023-08-31T17:43:05;1.75;;;1.27;;
21266;SDS011;10791;53.108;18.326;2023-08-31T17:48:09;2.67;;;1.38;;
21266;SDS011;10791;53.108;18.326;2023-08-31T17:53:14;1.95;;;1.02;;
21266;SDS011;10791;53.108;18.326;2023-08-31T17:58:18;2.63;;;1.50;;
21266;SDS011;10791;53.108;18.326;2023-08-31T18:03:22;2.35;;;1.30;;
21266;SDS011;10791;53.108;18.326;2023-08-31T18:08:27;2.85;;;1.63;;
21266;SDS011;10791;53.108;18.326;2023-08-31T18:13:31;2.63;;;1.00;;
21266;SDS011;10791;53.108;18.326;2023-08-31T18:18:35;1.55;;;1.10;;
21266;SDS011;10791;53.108;18.326;2023-08-31T18:23:41;2.75;;;1.20;;
21266;SDS011;10791;53.108;18.326;2023-08-31T18:28:45;1.58;;;1.00;;
21266;SDS011;10791;53.108;18.326;2023-08-31T18:33:50;3.13;;;1.20;;
21266;SDS011;10791;53.108;18.326;2023-08-31T18:38:55;2.97;;;1.43;;
21266;SDS011;10791;53.108;18.326;2023-08-31T18:44:00;2.10;;;1.20;;
21266;SDS011;10791;53.108;18.326;2023-08-31T18:49:06;3.60;;;1.50;;
21266;SDS011;10791;53.108;18.326;2023-08-31T18:54:12;2.63;;;1.37;;
21266;SDS011;10791;53.108;18.326;2023-08-31T18:59:16;2.83;;;1.57;;
21266;SDS011;10791;53.108;18.326;2023-08-31T19:04:21;4.87;;;1.70;;
21266;SDS011;10791;53.108;18.326;2023-08-31T19:09:25;4.27;;;1.93;;
21266;SDS011;10791;53.108;18.326;2023-08-31T19:14:33;4.83;;;1.70;;
21266;SDS011;10791;53.108;18.326;2023-08-31T19:19:41;7.43;;;2.50;;
21266;SDS011;10791;53.108;18.326;2023-08-31T19:24:45;5.40;;;2.53;;
21266;SDS011;10791;53.108;18.326;2023-08-31T19:29:50;3.27;;;2.07;;
21266;SDS011;10791;53.108;18.326;2023-08-31T19:34:54;3.53;;;2.00;;
21266;SDS011;10791;53.108;18.326;2023-08-31T19:40:01;5.60;;;2.10;;
21266;SDS011;10791;53.108;18.326;2023-08-31T19:45:07;5.70;;;2.30;;
21266;SDS011;10791;53.108;18.326;2023-08-31T19:50:13;4.67;;;2.67;;
21266;SDS011;10791;53.108;18.326;2023-08-31T19:55:24;4.00;;;2.33;;
21266;SDS011;10791;53.108;18.326;2023-08-31T20:00:28;4.03;;;2.60;;
21266;SDS011;10791;53.108;18.326;2023-08-31T20:05:32;6.53;;;3.50;;
21266;SDS011;10791;53.108;18.326;2023-08-31T20:10:38;5.40;;;2.97;;
21266;SDS011;10791;53.108;18.326;2023-08-31T20:15:43;5.80;;;3.20;;
21266;SDS011;10791;53.108;18.326;2023-08-31T20:20:48;14.13;;;5.97;;
21266;SDS011;10791;53.108;18.326;2023-08-31T20:25:53;8.20;;;4.20;;
21266;SDS011;10791;53.108;18.326;2023-08-31T20:30:57;9.10;;;3.30;;
21266;SDS011;10791;53.108;18.326;2023-08-31T20:36:06;7.07;;;3.70;;
21266;SDS011;10791;53.108;18.326;2023-08-31T20:41:14;5.13;;;3.23;;
21266;SDS011;10791;53.108;18.326;2023-08-31T20:46:21;5.00;;;3.53;;
21266;SDS011;10791;53.108;18.326;2023-08-31T20:51:26;8.37;;;3.43;;
21266;SDS011;10791;53.108;18.326;2023-08-31T20:56:30;8.50;;;3.73;;
21266;SDS011;10791;53.108;18.326;2023-08-31T21:01:34;9.13;;;3.57;;
21266;SDS011;10791;53.108;18.326;2023-08-31T21:06:38;7.60;;;3.80;;
21266;SDS011;10791;53.108;18.326;2023-08-31T21:11:46;6.83;;;3.43;;
21266;SDS011;10791;53.108;18.326;2023-08-31T21:16:50;7.57;;;3.17;;
21266;SDS011;10791;53.108;18.326;2023-08-31T21:21:54;5.97;;;3.70;;
21266;SDS011;10791;53.108;18.326;2023-08-31T21:26:57;6.10;;;3.57;;
21266;SDS011;10791;53.108;18.326;2023-08-31T21:32:01;6.63;;;3.47;;
21266;SDS011;10791;53.108;18.326;2023-08-31T21:37:05;8.23;;;3.63;;
21266;SDS011;10791;53.108;18.326;2023-08-31T21:42:08;5.20;;;3.00;;
21266;SDS011;10791;53.108;18.326;2023-08-31T21:47:11;6.53;;;4.03;;
21266;SDS011;10791;53.108;18.326;2023-08-31T21:52:15;5.80;;;3.40;;
21266;SDS011;10791;53.108;18.326;2023-08-31T21:57:18;4.27;;;3.07;;
21266;SDS011;10791;53.108;18.326;2023-08-31T22:02:22;9.83;;;4.10;;
21266;SDS011;10791;53.108;18.326;2023-08-31T22:07:25;6.20;;;3.67;;
21266;SDS011;10791;53.108;18.326;2023-08-31T22:12:28;6.00;;;3.67;;
21266;SDS011;10791;53.108;18.326;2023-08-31T22:17:32;4.97;;;3.20;;
21266;SDS011;10791;53.108;18.326;2023-08-31T22:22:36;5.40;;;3.40;;
21266;SDS011;10791;53.108;18.326;2023-08-31T22:27:39;5.80;;;3.10;;
21266;SDS011;10791;53.108;18.326;2023-08-31T22:32:43;4.57;;;3.33;;
21266;SDS011;10791;53.108;18.326;2023-08-31T22:37:47;6.83;;;4.77;;
21266;SDS011;10791;53.108;18.326;2023-08-31T22:42:51;7.87;;;4.47;;
21266;SDS011;10791;53.108;18.326;2023-08-31T22:47:54;7.23;;;3.80;;
21266;SDS011;10791;53.108;18.326;2023-08-31T22:52:57;6.53;;;3.80;;
21266;SDS011;10791;53.108;18.326;2023-08-31T22:58:03;4.83;;;3.60;;
21266;SDS011;10791;53.108;18.326;2023-08-31T23:03:06;10.07;;;3.77;;
21266;SDS011;10791;53.108;18.326;2023-08-31T23:08:12;6.13;;;3.90;;
21266;SDS011;10791;53.108;18.326;2023-08-31T23:13:16;5.50;;;3.53;;
21266;SDS011;10791;53.108;18.326;2023-08-31T23:18:20;4.87;;;3.27;;
21266;SDS011;10791;53.108;18.326;2023-08-31T23:23:23;6.60;;;3.40;;
21266;SDS011;10791;53.108;18.326;2023-08-31T23:28:27;8.87;;;3.93;;
21266;SDS011;10791;53.108;18.326;2023-08-31T23:33:32;7.97;;;3.70;;
21266;SDS011;10791;53.108;18.326;2023-08-31T23:38:35;8.53;;;3.73;;
21266;SDS011;10791;53.108;18.326;2023-08-31T23:43:39;5.57;;;3.80;;
21266;SDS011;10791;53.108;18.326;2023-08-31T23:48:42;6.47;;;3.57;;
21266;SDS011;10791;53.108;18.326;2023-08-31T23:53:45;6.07;;;3.20;;
21266;SDS011;10791;53.108;18.326;2023-08-31T23:58:48;5.87;;;3.53;;
